createdAt,value
2023-04-23T00:00:47.327Z,7.38
2023-04-23T00:03:52.120Z,6.82
2023-04-23T00:06:56.253Z,6.38
2023-04-23T00:10:00.489Z,6.68
2023-04-23T00:13:04.896Z,5.55
2023-04-23T00:16:08.483Z,4.30
2023-04-23T00:19:11.505Z,5.30
2023-04-23T00:22:26.854Z,5.32
2023-04-23T00:25:30.468Z,4.97
2023-04-23T00:28:34.149Z,5.28
2023-04-23T00:31:37.135Z,4.28
2023-04-23T00:34:42.652Z,6.00
2023-04-23T00:37:48.915Z,6.22
2023-04-23T00:40:53.383Z,5.30
2023-04-23T00:43:58.556Z,5.35
2023-04-23T00:47:02.448Z,5.75
2023-04-23T00:50:07.205Z,6.50
2023-04-23T00:53:11.420Z,6.50
2023-04-23T00:56:15.733Z,6.70
2023-04-23T00:59:20.594Z,6.72
2023-04-23T01:02:23.799Z,6.55
2023-04-23T01:05:27.054Z,7.78
2023-04-23T01:08:32.233Z,6.32
2023-04-23T01:11:35.460Z,6.63
2023-04-23T01:14:39.516Z,7.07
2023-04-23T01:17:44.098Z,6.97
2023-04-23T01:20:47.384Z,6.55
2023-04-23T01:23:51.388Z,6.90
2023-04-23T01:26:54.674Z,6.45
2023-04-23T01:29:58.840Z,6.57
2023-04-23T01:33:03.063Z,7.97
2023-04-23T01:36:06.598Z,7.25
2023-04-23T01:39:10.578Z,5.70
2023-04-23T01:42:16.811Z,5.93
2023-04-23T01:45:20.378Z,4.05
2023-04-23T01:48:25.269Z,7.60
2023-04-23T01:51:30.588Z,6.25
2023-04-23T01:54:34.771Z,7.35
2023-04-23T01:57:38.252Z,7.40
2023-04-23T02:00:42.702Z,7.15
2023-04-23T02:03:47.456Z,6.95
2023-04-23T02:06:52.318Z,7.15
2023-04-23T02:09:55.810Z,5.72
2023-04-23T02:13:00.752Z,4.50
2023-04-23T02:16:04.150Z,3.97
2023-04-23T02:19:08.002Z,3.80
2023-04-23T02:22:11.438Z,4.40
2023-04-23T02:25:17.984Z,3.53
2023-04-23T02:28:21.660Z,3.10
2023-04-23T02:31:25.403Z,3.38
2023-04-23T02:34:28.865Z,4.00
2023-04-23T02:37:34.408Z,2.53
2023-04-23T02:40:37.826Z,3.10
2023-04-23T02:43:41.142Z,2.15
2023-04-23T02:46:44.799Z,2.10
2023-04-23T02:49:48.824Z,1.48
2023-04-23T02:52:52.196Z,1.73
2023-04-23T02:55:57.192Z,1.90
2023-04-23T02:59:00.296Z,1.80
2023-04-23T03:02:03.822Z,2.33
2023-04-23T03:05:08.024Z,1.98
2023-04-23T03:08:11.547Z,2.28
2023-04-23T03:11:15.227Z,1.88
2023-04-23T03:14:19.383Z,2.10
2023-04-23T03:17:22.846Z,1.88
2023-04-23T03:20:27.725Z,1.73
2023-04-23T03:23:31.525Z,1.63
2023-04-23T03:26:35.793Z,2.20
2023-04-23T03:29:39.435Z,2.00
2023-04-23T03:32:43.430Z,2.05
2023-04-23T03:35:48.743Z,2.20
2023-04-23T03:38:57.405Z,1.58
2023-04-23T03:42:02.718Z,1.88
2023-04-23T03:45:08.189Z,1.92
2023-04-23T03:48:12.153Z,2.13
2023-04-23T03:51:16.739Z,1.60
2023-04-23T03:54:25.137Z,3.78
2023-04-23T03:57:48.541Z,1.70
2023-04-23T04:00:58.918Z,2.22
2023-04-23T04:04:03.278Z,2.38
2023-04-23T04:07:08.849Z,1.63
2023-04-23T04:10:12.686Z,1.63
2023-04-23T04:13:16.694Z,2.20
2023-04-23T04:16:20.516Z,1.55
2023-04-23T04:19:24.028Z,1.55
2023-04-23T04:22:28.006Z,2.10
2023-04-23T04:25:31.601Z,2.50
2023-04-23T04:28:37.337Z,1.70
2023-04-23T04:31:40.680Z,1.40
2023-04-23T04:34:44.519Z,1.58
2023-04-23T04:37:48.663Z,1.95
2023-04-23T04:40:52.499Z,1.67
2023-04-23T04:43:56.390Z,1.80
2023-04-23T04:47:00.598Z,1.63
2023-04-23T04:50:05.120Z,1.65
2023-04-23T04:53:09.203Z,2.03
2023-04-23T04:56:12.708Z,1.48
2023-04-23T04:59:16.905Z,1.77
2023-04-23T05:02:22.138Z,1.42
2023-04-23T05:05:27.525Z,1.60
2023-04-23T05:08:30.739Z,1.90
2023-04-23T05:11:36.639Z,1.70
2023-04-23T05:14:40.414Z,1.55
2023-04-23T05:17:45.092Z,1.35
2023-04-23T05:20:48.471Z,1.42
2023-04-23T05:23:52.552Z,1.40
2023-04-23T05:26:57.207Z,1.55
2023-04-23T05:30:03.106Z,1.50
2023-04-23T05:33:06.810Z,0.93
2023-04-23T05:36:11.152Z,1.55
2023-04-23T05:39:14.887Z,1.98
2023-04-23T05:42:17.932Z,1.50
2023-04-23T05:45:21.993Z,1.15
2023-04-23T05:48:25.765Z,1.35
2023-04-23T05:51:29.772Z,1.70
2023-04-23T05:54:33.310Z,1.15
2023-04-23T05:57:40.260Z,1.70
2023-04-23T06:00:43.784Z,1.60
2023-04-23T06:03:47.961Z,1.40
2023-04-23T06:06:51.744Z,1.25
2023-04-23T06:09:55.417Z,1.48
2023-04-23T06:12:59.196Z,1.67
2023-04-23T06:16:03.024Z,1.50
2023-04-23T06:19:07.534Z,1.80
2023-04-23T06:22:11.004Z,1.90
2023-04-23T06:25:15.092Z,1.17
2023-04-23T06:28:18.777Z,1.48
2023-04-23T06:31:45.504Z,1.60
2023-04-23T06:34:59.532Z,1.70
2023-04-23T06:38:05.233Z,1.50
2023-04-23T06:41:08.564Z,1.60
2023-04-23T06:44:12.691Z,1.85
2023-04-23T06:47:23.720Z,1.90
2023-04-23T06:50:28.519Z,1.40
2023-04-23T06:53:32.639Z,2.28
2023-04-23T06:56:36.079Z,2.33
2023-04-23T06:59:39.839Z,1.63
2023-04-23T07:02:43.455Z,1.42
2023-04-23T07:05:47.274Z,2.00
2023-04-23T07:08:50.343Z,1.42
2023-04-23T07:11:53.916Z,1.77
2023-04-23T07:14:58.175Z,1.50
2023-04-23T07:18:01.620Z,1.60
2023-04-23T07:21:05.820Z,1.70
2023-04-23T07:24:09.202Z,1.85
2023-04-23T07:27:13.276Z,1.42
2023-04-23T07:30:16.808Z,1.85
2023-04-23T07:33:20.603Z,2.20
2023-04-23T07:36:24.725Z,1.40
2023-04-23T07:39:28.367Z,2.20
2023-04-23T07:42:32.510Z,1.50
2023-04-23T07:45:36.081Z,1.90
2023-04-23T07:48:39.682Z,1.40
2023-04-23T07:51:43.470Z,1.23
2023-04-23T07:54:47.282Z,1.70
2023-04-23T07:57:50.841Z,2.40
2023-04-23T08:00:54.315Z,1.42
2023-04-23T08:04:01.563Z,1.40
2023-04-23T08:07:04.790Z,1.50
2023-04-23T08:10:08.887Z,1.38
2023-04-23T08:13:12.158Z,1.10
2023-04-23T08:16:16.617Z,1.30
2023-04-23T08:19:20.406Z,2.15
2023-04-23T08:22:24.060Z,1.60
2023-04-23T08:25:27.804Z,1.70
2023-04-23T08:28:35.397Z,2.60
2023-04-23T08:31:39.052Z,1.70
2023-04-23T08:34:42.080Z,2.35
2023-04-23T08:37:46.438Z,1.58
2023-04-23T08:40:53.123Z,1.20
2023-04-23T08:44:08.804Z,1.67
2023-04-23T08:47:15.452Z,1.95
2023-04-23T08:50:21.080Z,1.40
2023-04-23T08:53:28.749Z,2.10
2023-04-23T08:56:33.963Z,1.90
2023-04-23T08:59:38.665Z,1.55
2023-04-23T09:02:46.037Z,1.42
2023-04-23T09:08:56.666Z,1.65
2023-04-23T09:11:59.990Z,1.67
2023-04-23T09:15:11.908Z,1.77
2023-04-23T09:18:18.455Z,1.52
2023-04-23T09:21:22.459Z,1.40
2023-04-23T09:24:26.871Z,1.73
2023-04-23T09:27:30.496Z,1.55
2023-04-23T09:30:41.565Z,2.08
2023-04-23T09:33:56.342Z,1.42
2023-04-23T09:37:01.373Z,1.77
2023-04-23T09:40:10.322Z,1.92
2023-04-23T09:43:14.874Z,1.42
2023-04-23T09:46:17.910Z,1.60
2023-04-23T09:49:21.661Z,2.45
2023-04-23T09:52:25.581Z,2.17
2023-04-23T09:55:39.705Z,2.67
2023-04-23T09:58:47.033Z,2.17
2023-04-23T10:01:50.163Z,2.72
2023-04-23T10:05:03.301Z,1.60
2023-04-23T10:08:12.555Z,1.60
2023-04-23T10:14:24.706Z,1.85
2023-04-23T10:17:28.445Z,1.58
2023-04-23T10:20:31.755Z,1.65
2023-04-23T10:23:37.568Z,1.80
2023-04-23T10:26:43.305Z,2.85
2023-04-23T10:29:49.172Z,2.00
2023-04-23T10:32:52.276Z,1.73
2023-04-23T10:35:57.284Z,2.92
2023-04-23T10:39:05.418Z,2.13
2023-04-23T10:42:09.272Z,1.52
2023-04-23T10:48:24.688Z,1.88
2023-04-23T10:54:48.934Z,1.97
2023-04-23T10:58:03.594Z,2.50
2023-04-23T11:01:07.703Z,2.17
2023-04-23T11:04:46.546Z,1.95
2023-04-23T11:08:18.805Z,2.35
2023-04-23T11:11:49.388Z,1.85
2023-04-23T11:14:55.798Z,2.08
2023-04-23T11:18:01.502Z,1.88
2023-04-23T11:21:05.869Z,3.20
2023-04-23T11:24:08.959Z,3.20
2023-04-23T11:27:17.068Z,3.97
2023-04-23T11:30:26.377Z,3.53
2023-04-23T11:33:30.230Z,3.70
2023-04-23T11:36:34.777Z,3.58
2023-04-23T11:39:39.451Z,3.33
2023-04-23T11:42:50.006Z,4.38
2023-04-23T11:45:54.661Z,5.65
2023-04-23T11:49:00.222Z,6.60
2023-04-23T11:52:04.625Z,8.13
2023-04-23T11:55:10.874Z,10.75
2023-04-23T11:58:18.834Z,9.68
2023-04-23T12:01:21.933Z,7.53
2023-04-23T12:04:27.605Z,8.65
2023-04-23T12:07:34.240Z,10.45
2023-04-23T12:10:55.172Z,8.98
2023-04-23T12:13:59.251Z,8.43
2023-04-23T12:17:11.715Z,11.27
2023-04-23T12:20:22.823Z,12.02
2023-04-23T12:23:29.573Z,10.32
2023-04-23T12:26:32.599Z,6.60
2023-04-23T12:29:36.280Z,5.75
2023-04-23T12:32:39.554Z,6.65
2023-04-23T12:35:45.844Z,7.05
2023-04-23T12:38:48.823Z,6.07
2023-04-23T12:41:57.223Z,8.82
2023-04-23T12:48:11.037Z,8.77
2023-04-23T12:51:14.655Z,12.98
2023-04-23T12:54:17.676Z,12.55
2023-04-23T12:57:23.701Z,14.35
2023-04-23T13:00:27.213Z,13.15
2023-04-23T13:03:30.969Z,13.13
2023-04-23T13:06:34.192Z,14.25
2023-04-23T13:09:37.257Z,15.98
2023-04-23T13:12:41.644Z,23.73
2023-04-23T13:15:45.214Z,21.63
2023-04-23T13:18:48.937Z,16.73
2023-04-23T13:21:52.054Z,19.05
2023-04-23T13:28:14.798Z,17.60
2023-04-23T13:31:18.704Z,23.02
2023-04-23T13:34:22.292Z,24.30
2023-04-23T13:37:28.047Z,15.10
2023-04-23T13:40:32.015Z,11.13
2023-04-23T13:43:35.889Z,10.20
2023-04-23T13:46:40.666Z,11.15
2023-04-23T13:49:44.410Z,6.60
2023-04-23T13:52:48.542Z,6.63
2023-04-23T13:55:52.469Z,6.00
2023-04-23T13:59:08.070Z,7.05
2023-04-23T14:02:20.703Z,7.07
2023-04-23T14:05:25.293Z,6.35
2023-04-23T14:08:29.850Z,7.03
2023-04-23T14:11:33.320Z,3.88
2023-04-23T14:14:37.739Z,4.20
2023-04-23T14:17:43.537Z,3.88
2023-04-23T14:20:48.042Z,4.28
2023-04-23T14:24:08.856Z,6.22
2023-04-23T14:27:13.709Z,5.20
2023-04-23T14:30:21.060Z,8.30
2023-04-23T14:33:25.804Z,7.22
2023-04-23T14:36:29.748Z,8.25
2023-04-23T14:39:35.588Z,8.48
2023-04-23T14:42:38.708Z,7.70
2023-04-23T14:45:42.321Z,7.30
2023-04-23T14:48:46.533Z,8.05
2023-04-23T14:51:51.569Z,6.38
2023-04-23T14:54:56.466Z,7.13
2023-04-23T14:57:59.465Z,7.70
2023-04-23T15:01:02.427Z,5.03
2023-04-23T15:04:07.284Z,4.25
2023-04-23T15:07:11.382Z,2.97
2023-04-23T15:10:15.295Z,2.10
2023-04-23T15:13:38.038Z,2.08
2023-04-23T15:16:48.939Z,1.80
2023-04-23T15:19:55.089Z,3.03
2023-04-23T15:22:59.785Z,3.00
2023-04-23T15:26:03.995Z,3.88
2023-04-23T15:29:11.510Z,6.50
2023-04-23T15:32:15.492Z,7.68
2023-04-23T15:35:19.297Z,5.25
2023-04-23T15:38:24.670Z,5.15
2023-04-23T15:41:28.266Z,5.03
2023-04-23T15:44:32.257Z,3.30
2023-04-23T15:47:36.855Z,3.60
2023-04-23T15:50:40.830Z,3.10
2023-04-23T15:53:44.328Z,3.80
2023-04-23T15:56:47.778Z,3.17
2023-04-23T15:59:51.073Z,2.72
2023-04-23T16:02:54.470Z,3.58
2023-04-23T16:05:57.772Z,3.90
2023-04-23T16:09:03.190Z,3.08
2023-04-23T16:12:08.892Z,2.70
2023-04-23T16:15:13.596Z,3.17
2023-04-23T16:18:17.468Z,3.85
2023-04-23T16:21:20.612Z,2.97
2023-04-23T16:24:25.256Z,4.60
2023-04-23T16:27:28.996Z,5.47
2023-04-23T16:30:32.714Z,4.53
2023-04-23T16:33:36.251Z,5.28
2023-04-23T16:36:39.716Z,4.97
2023-04-23T16:39:44.475Z,5.78
2023-04-23T16:42:49.318Z,4.63
2023-04-23T16:45:52.683Z,4.50
2023-04-23T16:48:56.462Z,6.15
2023-04-23T16:52:00.010Z,5.03
2023-04-23T16:55:03.710Z,6.20
2023-04-23T16:58:08.464Z,4.32
2023-04-23T17:01:11.833Z,4.88
2023-04-23T17:04:15.219Z,3.47
2023-04-23T17:07:19.448Z,7.50
2023-04-23T17:10:22.995Z,8.07
2023-04-23T17:13:26.275Z,7.25
2023-04-23T17:16:30.428Z,5.53
2023-04-23T17:19:34.500Z,6.43
2023-04-23T17:22:38.007Z,6.97
2023-04-23T17:25:42.284Z,6.32
2023-04-23T17:28:46.736Z,5.55
2023-04-23T17:31:50.100Z,4.05
2023-04-23T17:35:03.057Z,4.05
2023-04-23T17:38:13.995Z,4.75
2023-04-23T17:41:18.258Z,3.40
2023-04-23T17:44:22.551Z,3.28
2023-04-23T17:47:26.807Z,5.30
2023-04-23T17:50:30.835Z,7.60
2023-04-23T17:53:33.919Z,8.05
2023-04-23T17:56:38.444Z,5.32
2023-04-23T17:59:41.983Z,3.63
2023-04-23T18:02:47.007Z,5.15
2023-04-23T18:05:50.284Z,3.28
2023-04-23T18:08:53.593Z,3.85
2023-04-23T18:12:00.761Z,5.43
2023-04-23T18:15:04.889Z,5.60
2023-04-23T18:18:09.100Z,6.90
2023-04-23T18:21:15.760Z,4.28
2023-04-23T18:24:20.113Z,3.55
2023-04-23T18:27:23.926Z,2.45
2023-04-23T18:30:27.918Z,2.00
2023-04-23T18:33:43.658Z,2.10
2023-04-23T18:36:50.741Z,2.17
2023-04-23T18:39:55.285Z,2.67
2023-04-23T18:42:58.832Z,2.13
2023-04-23T18:46:03.339Z,3.42
2023-04-23T18:49:23.622Z,3.40
2023-04-23T18:52:26.937Z,2.40
2023-04-23T18:55:31.229Z,2.55
2023-04-23T18:58:34.775Z,2.25
2023-04-23T19:01:40.264Z,1.23
2023-04-23T19:04:44.062Z,2.10
2023-04-23T19:07:48.905Z,2.85
2023-04-23T19:10:52.096Z,1.85
2023-04-23T19:13:55.177Z,2.38
2023-04-23T19:16:58.772Z,3.03
2023-04-23T19:20:01.846Z,3.13
2023-04-23T19:23:06.461Z,1.42
2023-04-23T19:26:10.610Z,1.90
2023-04-23T19:29:13.869Z,1.40
2023-04-23T19:32:17.916Z,2.10
2023-04-23T19:35:22.679Z,1.75
2023-04-23T19:38:25.897Z,1.50
2023-04-23T19:41:29.079Z,2.33
2023-04-23T19:44:33.191Z,2.50
2023-04-23T19:47:39.459Z,1.92
2023-04-23T19:50:42.793Z,2.25
2023-04-23T19:53:47.164Z,2.35
2023-04-23T19:56:51.465Z,2.17
2023-04-23T19:59:54.772Z,1.83
2023-04-23T20:02:58.826Z,1.85
2023-04-23T20:06:02.533Z,1.70
2023-04-23T20:09:09.127Z,1.85
2023-04-23T20:12:14.128Z,1.42
2023-04-23T20:15:17.963Z,2.22
2023-04-23T20:18:22.537Z,2.63
2023-04-23T20:21:25.867Z,2.10
2023-04-23T20:24:30.018Z,2.70
2023-04-23T20:27:33.584Z,3.55
2023-04-23T20:30:38.155Z,3.80
2023-04-23T20:33:41.401Z,4.75
2023-04-23T20:36:48.008Z,4.30
2023-04-23T20:39:51.660Z,4.05
2023-04-23T20:42:55.428Z,3.90
2023-04-23T20:45:58.789Z,3.70
2023-04-23T20:49:03.952Z,4.45
2023-04-23T20:52:08.536Z,3.90
2023-04-23T20:55:11.714Z,2.63
2023-04-23T20:58:15.114Z,2.80
2023-04-23T21:01:19.588Z,1.77
2023-04-23T21:04:23.854Z,2.38
2023-04-23T21:07:27.566Z,2.00
2023-04-23T21:10:30.948Z,2.08
2023-04-23T21:13:34.968Z,1.98
2023-04-23T21:16:39.329Z,2.40
2023-04-23T21:19:42.979Z,1.98
2023-04-23T21:22:46.859Z,2.22
2023-04-23T21:25:51.379Z,2.13
2023-04-23T21:28:54.757Z,2.03
2023-04-23T21:31:58.943Z,2.30
2023-04-23T21:35:02.263Z,2.00
2023-04-23T21:38:05.554Z,1.73
2023-04-23T21:41:08.733Z,2.05
2023-04-23T21:44:12.074Z,2.35
2023-04-23T21:47:15.483Z,2.42
2023-04-23T21:50:19.743Z,2.00
2023-04-23T21:53:24.444Z,2.15
2023-04-23T21:56:28.458Z,2.05
2023-04-23T21:59:32.148Z,2.75
2023-04-23T22:02:36.700Z,1.88
2023-04-23T22:05:40.833Z,1.98
2023-04-23T22:08:47.307Z,2.13
2023-04-23T22:12:01.252Z,3.15
2023-04-23T22:15:16.717Z,2.58
2023-04-23T22:18:20.638Z,2.25
2023-04-23T22:21:24.913Z,1.52
2023-04-23T22:24:28.818Z,1.88
2023-04-23T22:27:34.746Z,1.95
2023-04-23T22:30:39.024Z,1.85
2023-04-23T22:33:43.050Z,2.33
2023-04-23T22:36:46.082Z,1.90
2023-04-23T22:39:52.368Z,2.30
2023-04-23T22:42:56.153Z,1.92
2023-04-23T22:45:59.617Z,2.03
2023-04-23T22:49:03.311Z,1.70
2023-04-23T22:52:06.660Z,1.85
2023-04-23T22:55:09.912Z,2.55
2023-04-23T22:58:13.555Z,1.35
2023-04-23T23:01:18.908Z,2.05
2023-04-23T23:04:22.840Z,2.50
2023-04-23T23:07:26.602Z,2.17
2023-04-23T23:10:31.069Z,2.72
2023-04-23T23:13:34.217Z,2.78
2023-04-23T23:16:38.522Z,2.30
2023-04-23T23:19:42.704Z,2.80
2023-04-23T23:22:46.656Z,2.30
2023-04-23T23:25:50.053Z,2.33
2023-04-23T23:28:53.500Z,2.20
2023-04-23T23:31:58.635Z,2.10
2023-04-23T23:35:03.536Z,2.00
2023-04-23T23:38:06.871Z,1.50
2023-04-23T23:41:11.344Z,1.40
2023-04-23T23:44:15.001Z,1.40
2023-04-23T23:47:18.718Z,1.40
2023-04-23T23:50:22.894Z,1.67
2023-04-23T23:53:27.048Z,1.58
2023-04-23T23:56:30.948Z,1.50
2023-04-23T23:59:34.952Z,1.45
